createdAt,value
2023-03-06T00:01:02.130Z,8.45
2023-03-06T00:03:30.953Z,8.73
2023-03-06T00:06:00.119Z,7.88
2023-03-06T00:08:30.032Z,9.00
2023-03-06T00:10:59.133Z,9.30
2023-03-06T00:13:30.760Z,10.23
2023-03-06T00:16:01.818Z,10.23
2023-03-06T00:18:30.705Z,10.52
2023-03-06T00:20:59.543Z,9.32
2023-03-06T00:23:28.502Z,10.77
2023-03-06T00:25:57.218Z,10.55
2023-03-06T00:28:26.718Z,9.48
2023-03-06T00:30:55.444Z,9.05
2023-03-06T00:33:24.082Z,9.18
2023-03-06T00:35:55.076Z,8.93
2023-03-06T00:38:23.995Z,8.73
2023-03-06T00:40:52.677Z,8.93
2023-03-06T00:43:22.842Z,8.63
2023-03-06T00:45:51.584Z,9.23
2023-03-06T00:48:20.210Z,9.30
2023-03-06T00:50:49.019Z,8.75
2023-03-06T00:53:17.618Z,8.90
2023-03-06T00:55:46.914Z,8.73
2023-03-06T00:58:15.788Z,9.25
2023-03-06T01:00:44.892Z,8.65
2023-03-06T01:03:13.835Z,8.63
2023-03-06T01:05:42.909Z,8.63
2023-03-06T01:08:11.834Z,8.82
2023-03-06T01:10:41.452Z,8.50
2023-03-06T01:13:10.972Z,9.35
2023-03-06T01:15:39.671Z,8.80
2023-03-06T01:18:11.214Z,9.27
2023-03-06T01:20:40.074Z,9.45
2023-03-06T01:23:09.519Z,8.27
2023-03-06T01:25:37.990Z,8.05
2023-03-06T01:28:07.009Z,8.25
2023-03-06T01:30:37.361Z,9.20
2023-03-06T01:33:06.257Z,9.65
2023-03-06T01:35:35.403Z,7.85
2023-03-06T01:38:04.138Z,9.10
2023-03-06T01:40:34.633Z,9.07
2023-03-06T01:43:43.020Z,9.10
2023-03-06T01:46:39.574Z,8.75
2023-03-06T01:49:14.602Z,8.60
2023-03-06T01:51:54.735Z,9.23
2023-03-06T01:54:35.875Z,8.95
2023-03-06T01:57:10.534Z,9.77
2023-03-06T01:59:41.316Z,9.75
2023-03-06T02:02:12.825Z,7.97
2023-03-06T02:04:44.775Z,8.18
2023-03-06T02:07:16.038Z,8.48
2023-03-06T02:09:44.748Z,9.18
2023-03-06T02:12:18.079Z,9.93
2023-03-06T02:14:47.946Z,8.32
2023-03-06T02:17:20.678Z,9.40
2023-03-06T02:20:08.612Z,8.60
2023-03-06T02:22:55.249Z,7.85
2023-03-06T02:25:34.739Z,8.82
2023-03-06T02:28:05.398Z,8.00
2023-03-06T02:30:34.565Z,8.40
2023-03-06T02:33:04.996Z,8.35
2023-03-06T02:35:39.252Z,8.40
2023-03-06T02:40:47.820Z,8.18
2023-03-06T02:43:21.156Z,7.93
2023-03-06T02:45:51.618Z,7.65
2023-03-06T02:48:21.844Z,7.90
2023-03-06T02:50:50.460Z,7.10
2023-03-06T02:53:20.873Z,8.13
2023-03-06T02:55:50.420Z,7.57
2023-03-06T02:58:22.534Z,8.07
2023-03-06T03:00:51.557Z,7.97
2023-03-06T03:03:21.993Z,8.82
2023-03-06T03:05:50.669Z,7.80
2023-03-06T03:08:25.994Z,7.95
2023-03-06T03:10:59.171Z,8.45
2023-03-06T03:13:34.580Z,8.15
2023-03-06T03:16:09.721Z,8.35
2023-03-06T03:18:38.499Z,8.20
2023-03-06T03:21:13.435Z,6.55
2023-03-06T03:23:42.781Z,7.75
2023-03-06T03:26:13.759Z,6.80
2023-03-06T03:28:46.227Z,8.27
2023-03-06T03:31:18.641Z,7.53
2023-03-06T03:33:47.565Z,7.25
2023-03-06T03:36:18.976Z,8.15
2023-03-06T03:38:50.534Z,8.07
2023-03-06T03:41:19.955Z,9.30
2023-03-06T03:43:49.224Z,8.05
2023-03-06T03:46:18.826Z,8.38
2023-03-06T03:48:48.063Z,7.63
2023-03-06T03:51:18.270Z,7.90
2023-03-06T03:53:51.507Z,7.50
2023-03-06T03:56:24.079Z,7.90
2023-03-06T03:59:07.789Z,7.53
2023-03-06T04:01:43.545Z,8.02
2023-03-06T04:04:12.374Z,7.07
2023-03-06T04:06:42.812Z,7.50
2023-03-06T04:09:12.266Z,7.20
2023-03-06T04:11:41.413Z,7.65
2023-03-06T04:14:13.354Z,8.25
2023-03-06T04:16:42.141Z,7.25
2023-03-06T04:19:12.313Z,7.43
2023-03-06T04:21:41.643Z,8.90
2023-03-06T04:24:10.781Z,7.95
2023-03-06T04:26:39.637Z,8.73
2023-03-06T04:29:08.514Z,7.57
2023-03-06T04:31:37.308Z,8.25
2023-03-06T04:34:06.097Z,8.82
2023-03-06T04:36:36.458Z,8.00
2023-03-06T04:39:09.387Z,6.80
2023-03-06T04:41:38.487Z,8.00
2023-03-06T04:44:07.696Z,8.73
2023-03-06T04:46:36.998Z,8.45
2023-03-06T04:49:05.787Z,7.60
2023-03-06T04:51:37.566Z,7.18
2023-03-06T04:54:06.745Z,7.93
2023-03-06T04:56:35.848Z,8.48
2023-03-06T04:59:05.400Z,8.95
2023-03-06T05:01:34.163Z,8.32
2023-03-06T05:04:03.056Z,9.13
2023-03-06T05:06:32.074Z,8.45
2023-03-06T05:09:01.088Z,9.23
2023-03-06T05:11:32.074Z,9.85
2023-03-06T05:14:03.906Z,9.50
2023-03-06T05:16:32.764Z,9.43
2023-03-06T05:19:01.674Z,9.48
2023-03-06T05:21:31.199Z,9.10
2023-03-06T05:24:00.242Z,9.90
2023-03-06T05:26:28.844Z,9.70
2023-03-06T05:28:57.926Z,9.65
2023-03-06T05:31:26.837Z,10.93
2023-03-06T05:33:56.045Z,9.02
2023-03-06T05:36:24.826Z,9.45
2023-03-06T05:38:54.168Z,10.05
2023-03-06T05:41:23.004Z,9.43
2023-03-06T05:43:53.891Z,8.25
2023-03-06T05:46:22.970Z,10.23
2023-03-06T05:48:53.990Z,8.63
2023-03-06T05:51:22.913Z,9.05
2023-03-06T05:53:51.630Z,9.25
2023-03-06T05:56:20.410Z,8.10
2023-03-06T05:58:49.903Z,8.55
2023-03-06T06:01:21.968Z,7.50
2023-03-06T06:03:50.789Z,10.27
2023-03-06T06:06:19.836Z,11.77
2023-03-06T06:08:48.919Z,11.13
2023-03-06T06:11:19.127Z,11.80
2023-03-06T06:13:50.255Z,9.13
2023-03-06T06:16:20.184Z,11.98
2023-03-06T06:18:49.248Z,9.30
2023-03-06T06:21:18.308Z,10.48
2023-03-06T06:23:47.732Z,8.65
2023-03-06T06:26:16.567Z,9.93
2023-03-06T06:28:45.240Z,12.00
2023-03-06T06:31:14.855Z,10.43
2023-03-06T06:33:44.631Z,10.80
2023-03-06T06:36:20.812Z,10.23
2023-03-06T06:38:50.367Z,10.13
2023-03-06T06:41:52.881Z,8.80
2023-03-06T06:44:09.486Z,9.75
2023-03-06T06:49:27.567Z,10.57
2023-03-06T06:51:56.452Z,9.90
2023-03-06T06:54:25.708Z,10.32
2023-03-06T06:56:54.897Z,10.50
2023-03-06T06:59:24.528Z,10.32
2023-03-06T07:01:53.924Z,9.10
2023-03-06T07:04:22.718Z,10.45
2023-03-06T07:06:51.699Z,10.50
2023-03-06T07:09:21.038Z,9.63
2023-03-06T07:11:49.803Z,10.48
2023-03-06T07:14:18.869Z,10.00
2023-03-06T07:16:47.695Z,9.38
2023-03-06T07:19:16.588Z,10.50
2023-03-06T07:21:45.232Z,10.25
2023-03-06T07:24:13.942Z,8.88
2023-03-06T07:26:47.840Z,10.38
2023-03-06T07:29:17.066Z,9.88
2023-03-06T07:31:46.283Z,10.55
2023-03-06T07:34:16.336Z,10.77
2023-03-06T07:36:45.221Z,9.88
2023-03-06T07:39:13.929Z,9.68
2023-03-06T07:41:42.858Z,10.95
2023-03-06T07:44:11.894Z,9.50
2023-03-06T07:46:40.762Z,9.65
2023-03-06T07:49:09.734Z,10.15
2023-03-06T07:51:38.484Z,10.25
2023-03-06T07:54:07.339Z,10.82
2023-03-06T07:56:36.354Z,12.02
2023-03-06T07:59:05.035Z,11.90
2023-03-06T08:01:34.037Z,11.68
2023-03-06T08:04:02.905Z,11.43
2023-03-06T08:06:31.803Z,11.75
2023-03-06T08:09:01.302Z,10.80
2023-03-06T08:11:31.584Z,10.73
2023-03-06T08:14:00.718Z,10.45
2023-03-06T08:16:32.618Z,11.55
2023-03-06T08:19:01.334Z,11.38
2023-03-06T08:21:33.261Z,11.48
2023-03-06T08:24:02.243Z,12.05
2023-03-06T08:26:33.650Z,12.15
2023-03-06T08:29:03.628Z,11.10
2023-03-06T08:31:32.304Z,12.30
2023-03-06T08:34:06.809Z,11.73
2023-03-06T08:36:35.649Z,11.45
2023-03-06T08:39:05.340Z,10.82
2023-03-06T08:41:34.992Z,10.07
2023-03-06T08:44:04.378Z,11.63
2023-03-06T08:46:34.187Z,12.30
2023-03-06T08:49:03.431Z,12.85
2023-03-06T08:51:32.308Z,11.15
2023-03-06T08:54:01.452Z,11.20
2023-03-06T08:56:34.986Z,11.98
2023-03-06T08:59:06.589Z,12.10
2023-03-06T09:01:38.272Z,13.10
2023-03-06T09:04:11.522Z,13.68
2023-03-06T09:06:43.439Z,11.52
2023-03-06T09:09:13.185Z,11.75
2023-03-06T09:11:41.829Z,13.10
2023-03-06T09:14:10.759Z,12.68
2023-03-06T09:16:39.780Z,12.02
2023-03-06T09:19:08.687Z,11.13
2023-03-06T09:21:37.530Z,13.70
2023-03-06T09:24:06.531Z,13.52
2023-03-06T09:26:45.649Z,12.60
2023-03-06T09:29:16.955Z,12.60
2023-03-06T09:31:46.208Z,12.10
2023-03-06T09:34:15.104Z,11.90
2023-03-06T09:36:56.474Z,12.38
2023-03-06T09:39:27.126Z,12.35
2023-03-06T09:41:58.315Z,11.23
2023-03-06T09:44:33.079Z,12.10
2023-03-06T09:47:11.672Z,11.82
2023-03-06T09:50:31.031Z,12.70
2023-03-06T09:53:17.970Z,13.25
2023-03-06T09:56:15.474Z,12.68
2023-03-06T09:58:49.880Z,12.05
2023-03-06T10:01:26.876Z,12.57
2023-03-06T10:03:57.595Z,12.32
2023-03-06T10:06:50.167Z,12.98
2023-03-06T10:09:27.979Z,11.52
2023-03-06T10:12:07.567Z,12.45
2023-03-06T10:14:46.656Z,11.85
2023-03-06T10:17:20.089Z,12.88
2023-03-06T10:19:50.293Z,12.25
2023-03-06T10:22:40.202Z,11.57
2023-03-06T10:25:23.441Z,13.07
2023-03-06T10:28:17.506Z,12.38
2023-03-06T10:31:08.609Z,12.25
2023-03-06T10:33:58.212Z,11.95
2023-03-06T10:36:29.185Z,11.25
2023-03-06T10:38:59.788Z,10.07
2023-03-06T10:41:36.143Z,12.35
2023-03-06T10:44:05.023Z,11.60
2023-03-06T10:46:43.055Z,10.80
2023-03-06T10:49:30.926Z,9.43
2023-03-06T10:52:08.333Z,11.35
2023-03-06T10:54:40.037Z,10.00
2023-03-06T10:57:30.443Z,9.70
2023-03-06T11:00:01.912Z,10.27
2023-03-06T11:02:34.323Z,9.68
2023-03-06T11:05:04.386Z,9.60
2023-03-06T11:07:35.699Z,8.27
2023-03-06T11:10:19.861Z,9.80
2023-03-06T11:13:02.254Z,9.35
2023-03-06T11:15:31.541Z,8.93
2023-03-06T11:18:31.681Z,8.13
2023-03-06T11:21:00.502Z,9.32
2023-03-06T11:23:47.880Z,7.35
2023-03-06T11:26:20.948Z,7.85
2023-03-06T11:28:58.545Z,8.07
2023-03-06T11:31:38.648Z,7.38
2023-03-06T11:34:13.304Z,7.68
2023-03-06T11:37:07.962Z,7.95
2023-03-06T11:40:00.151Z,7.47
2023-03-06T11:42:40.254Z,8.20
2023-03-06T11:45:23.829Z,8.75
2023-03-06T11:48:18.311Z,7.45
2023-03-06T11:50:56.214Z,7.43
2023-03-06T11:53:33.892Z,8.13
2023-03-06T11:56:15.134Z,7.75
2023-03-06T11:59:14.476Z,8.63
2023-03-06T12:02:01.339Z,8.18
2023-03-06T12:04:52.038Z,8.57
2023-03-06T12:07:30.357Z,7.07
2023-03-06T12:10:14.482Z,8.07
2023-03-06T12:13:26.837Z,7.65
2023-03-06T12:16:25.699Z,7.38
2023-03-06T12:19:12.637Z,6.65
2023-03-06T12:22:03.803Z,7.75
2023-03-06T12:25:10.481Z,7.43
2023-03-06T12:28:26.985Z,7.80
2023-03-06T12:31:13.866Z,6.93
2023-03-06T12:34:05.835Z,7.53
2023-03-06T12:36:48.157Z,6.78
2023-03-06T12:39:31.788Z,7.43
2023-03-06T12:42:23.261Z,8.45
2023-03-06T12:45:24.117Z,7.90
2023-03-06T12:47:57.931Z,8.60
2023-03-06T12:50:33.384Z,8.25
2023-03-06T12:53:06.364Z,8.40
2023-03-06T12:55:54.002Z,8.27
2023-03-06T12:58:31.600Z,8.23
2023-03-06T13:01:24.915Z,8.45
2023-03-06T13:04:50.585Z,8.40
2023-03-06T13:07:57.496Z,8.65
2023-03-06T13:10:34.290Z,8.45
2023-03-06T13:13:23.944Z,8.35
2023-03-06T13:16:19.572Z,10.65
2023-03-06T13:18:54.587Z,9.68
2023-03-06T13:24:22.723Z,8.00
2023-03-06T13:26:58.063Z,17.75
2023-03-06T13:29:38.390Z,11.40
2023-03-06T13:32:20.556Z,9.02
2023-03-06T13:34:52.485Z,10.05
2023-03-06T13:37:26.079Z,7.10
2023-03-06T13:40:02.330Z,6.63
2023-03-06T13:42:38.840Z,6.80
2023-03-06T13:45:28.548Z,7.47
2023-03-06T13:50:49.393Z,6.95
2023-03-06T13:53:41.562Z,7.28
2023-03-06T13:56:29.756Z,6.77
2023-03-06T13:59:25.665Z,5.15
2023-03-06T14:02:32.068Z,6.47
2023-03-06T14:05:03.203Z,5.97
2023-03-06T14:07:52.873Z,6.22
2023-03-06T14:10:26.521Z,5.63
2023-03-06T14:13:35.161Z,5.65
2023-03-06T14:16:18.627Z,4.97
2023-03-06T14:18:53.045Z,4.93
2023-03-06T14:21:40.714Z,5.93
2023-03-06T14:24:19.670Z,5.55
2023-03-06T14:26:52.984Z,5.65
2023-03-06T14:29:29.745Z,3.92
2023-03-06T14:34:31.053Z,4.25
2023-03-06T14:37:03.493Z,5.13
2023-03-06T14:39:41.378Z,4.28
2023-03-06T14:42:20.298Z,5.15
2023-03-06T14:45:00.736Z,3.92
2023-03-06T14:47:34.336Z,4.25
2023-03-06T14:50:22.702Z,4.05
2023-03-06T14:53:23.200Z,4.00
2023-03-06T14:55:58.767Z,4.10
2023-03-06T14:58:58.642Z,5.35
2023-03-06T15:01:38.157Z,4.78
2023-03-06T15:04:27.032Z,5.22
2023-03-06T15:06:57.496Z,3.85
2023-03-06T15:09:35.580Z,2.42
2023-03-06T15:12:10.052Z,3.13
2023-03-06T15:14:40.355Z,2.35
2023-03-06T15:17:18.522Z,3.22
2023-03-06T15:19:55.481Z,2.90
2023-03-06T15:22:41.035Z,3.13
2023-03-06T15:25:12.890Z,2.75
2023-03-06T15:27:41.800Z,3.30
2023-03-06T15:30:25.508Z,5.18
2023-03-06T15:33:29.524Z,4.70
2023-03-06T15:36:06.859Z,4.03
2023-03-06T15:38:43.895Z,3.03
2023-03-06T15:41:34.374Z,3.00
2023-03-06T15:44:09.739Z,2.88
2023-03-06T15:46:38.439Z,3.83
2023-03-06T15:49:15.183Z,2.47
2023-03-06T15:51:44.125Z,2.60
2023-03-06T15:54:12.991Z,2.60
2023-03-06T15:56:44.596Z,2.50
2023-03-06T15:59:32.132Z,2.22
2023-03-06T16:02:14.406Z,2.50
2023-03-06T16:04:43.412Z,2.53
2023-03-06T16:07:13.240Z,2.47
2023-03-06T16:09:43.469Z,2.42
2023-03-06T16:12:22.222Z,3.05
2023-03-06T16:14:51.128Z,2.72
2023-03-06T16:17:20.430Z,2.55
2023-03-06T16:19:49.115Z,2.85
2023-03-06T16:22:17.948Z,2.67
2023-03-06T16:24:47.203Z,2.92
2023-03-06T16:27:20.600Z,2.40
2023-03-06T16:29:49.085Z,2.80
2023-03-06T16:32:17.808Z,3.78
2023-03-06T16:34:46.687Z,3.00
2023-03-06T16:37:15.480Z,4.00
2023-03-06T16:39:44.960Z,2.88
2023-03-06T16:42:13.808Z,2.58
2023-03-06T16:44:43.345Z,2.75
2023-03-06T16:47:13.188Z,3.00
2023-03-06T16:49:41.969Z,2.40
2023-03-06T16:52:12.171Z,3.25
2023-03-06T16:54:41.665Z,3.47
2023-03-06T16:57:15.298Z,3.28
2023-03-06T16:59:43.986Z,3.50
2023-03-06T17:02:13.614Z,3.72
2023-03-06T17:04:42.350Z,4.60
2023-03-06T17:07:11.197Z,3.55
2023-03-06T17:09:40.001Z,3.40
2023-03-06T17:12:09.701Z,4.03
2023-03-06T17:14:39.242Z,3.75
2023-03-06T17:17:08.165Z,3.33
2023-03-06T17:19:37.568Z,3.92
2023-03-06T17:22:06.499Z,4.32
2023-03-06T17:24:37.083Z,4.22
2023-03-06T17:27:05.595Z,3.03
2023-03-06T17:29:34.250Z,3.13
2023-03-06T17:32:04.286Z,3.70
2023-03-06T17:34:33.226Z,5.88
2023-03-06T17:37:04.812Z,3.08
2023-03-06T17:39:36.020Z,3.03
2023-03-06T17:42:06.284Z,3.17
2023-03-06T17:44:35.571Z,2.70
2023-03-06T17:47:05.356Z,3.83
2023-03-06T17:49:34.215Z,3.58
2023-03-06T17:52:06.940Z,3.80
2023-03-06T17:54:35.967Z,3.03
2023-03-06T17:57:06.364Z,3.83
2023-03-06T17:59:35.358Z,3.15
2023-03-06T18:02:04.290Z,2.75
2023-03-06T18:04:32.860Z,3.17
2023-03-06T18:07:01.954Z,2.97
2023-03-06T18:09:30.593Z,3.03
2023-03-06T18:11:59.453Z,3.20
2023-03-06T18:14:28.239Z,2.95
2023-03-06T18:16:56.976Z,2.50
2023-03-06T18:19:25.673Z,2.60
2023-03-06T18:21:54.154Z,2.47
2023-03-06T18:24:23.065Z,2.70
2023-03-06T18:26:52.096Z,2.47
2023-03-06T18:29:20.812Z,3.10
2023-03-06T18:31:51.236Z,3.08
2023-03-06T18:34:19.872Z,3.63
2023-03-06T18:36:51.477Z,4.45
2023-03-06T18:39:22.212Z,3.42
2023-03-06T18:41:51.181Z,2.90
2023-03-06T18:44:19.873Z,4.13
2023-03-06T18:46:48.260Z,3.53
2023-03-06T18:49:17.047Z,3.95
2023-03-06T18:51:45.757Z,3.53
2023-03-06T18:54:14.278Z,3.72
2023-03-06T18:56:45.324Z,3.67
2023-03-06T18:59:18.633Z,4.05
2023-03-06T19:01:48.700Z,3.33
2023-03-06T19:04:17.590Z,3.78
2023-03-06T19:06:48.677Z,4.32
2023-03-06T19:09:17.598Z,4.22
2023-03-06T19:11:47.538Z,3.75
2023-03-06T19:14:16.729Z,5.90
2023-03-06T19:16:45.549Z,4.00
2023-03-06T19:19:14.296Z,3.80
2023-03-06T19:21:43.304Z,3.83
2023-03-06T19:24:14.801Z,3.53
2023-03-06T19:26:44.038Z,3.38
2023-03-06T19:29:12.963Z,3.53
2023-03-06T19:31:42.882Z,3.95
2023-03-06T19:34:11.765Z,4.13
2023-03-06T19:36:41.403Z,4.13
2023-03-06T19:39:11.685Z,3.45
2023-03-06T19:41:40.365Z,3.92
2023-03-06T19:44:12.993Z,3.58
2023-03-06T19:46:41.788Z,3.95
2023-03-06T19:49:16.638Z,3.30
2023-03-06T19:51:45.675Z,3.45
2023-03-06T19:54:15.169Z,3.67
2023-03-06T19:56:43.996Z,3.42
2023-03-06T19:59:12.730Z,3.22
2023-03-06T20:01:41.723Z,4.38
2023-03-06T20:04:10.737Z,3.58
2023-03-06T20:06:39.669Z,2.70
2023-03-06T20:09:10.216Z,3.22
2023-03-06T20:11:39.914Z,3.50
2023-03-06T20:14:09.869Z,3.30
2023-03-06T20:16:39.184Z,3.55
2023-03-06T20:19:09.396Z,3.15
2023-03-06T20:21:39.257Z,3.10
2023-03-06T20:24:10.576Z,3.40
2023-03-06T20:26:39.553Z,3.10
2023-03-06T20:29:08.300Z,3.20
2023-03-06T20:31:37.578Z,3.50
2023-03-06T20:34:06.685Z,3.67
2023-03-06T20:36:39.952Z,4.13
2023-03-06T20:39:12.115Z,5.57
2023-03-06T20:41:41.171Z,4.50
2023-03-06T20:44:13.563Z,3.65
2023-03-06T20:46:42.640Z,4.38
2023-03-06T20:49:16.201Z,3.70
2023-03-06T20:51:45.039Z,2.95
2023-03-06T20:54:15.958Z,3.40
2023-03-06T20:56:49.127Z,3.75
2023-03-06T20:59:18.091Z,4.15
2023-03-06T21:01:48.567Z,3.28
2023-03-06T21:04:19.797Z,3.55
2023-03-06T21:06:48.555Z,3.50
2023-03-06T21:09:18.504Z,3.38
2023-03-06T21:11:47.441Z,3.10
2023-03-06T21:14:16.957Z,3.45
2023-03-06T21:16:45.722Z,3.67
2023-03-06T21:19:14.578Z,3.03
2023-03-06T21:21:43.360Z,3.40
2023-03-06T21:24:12.342Z,3.45
2023-03-06T21:26:41.043Z,3.40
2023-03-06T21:29:10.502Z,3.20
2023-03-06T21:31:42.156Z,3.15
2023-03-06T21:34:12.261Z,3.20
2023-03-06T21:36:41.163Z,3.50
2023-03-06T21:39:13.001Z,3.10
2023-03-06T21:41:42.004Z,2.95
2023-03-06T21:44:12.941Z,3.50
2023-03-06T21:46:41.751Z,3.90
2023-03-06T21:49:10.407Z,3.28
2023-03-06T21:51:39.204Z,3.47
2023-03-06T21:54:10.351Z,3.58
2023-03-06T21:56:38.958Z,3.40
2023-03-06T21:59:07.843Z,3.65
2023-03-06T22:01:36.624Z,3.22
2023-03-06T22:04:05.737Z,3.47
2023-03-06T22:06:34.402Z,3.20
2023-03-06T22:09:05.028Z,3.45
2023-03-06T22:11:37.604Z,3.80
2023-03-06T22:14:07.127Z,3.33
2023-03-06T22:16:35.976Z,3.67
2023-03-06T22:19:04.905Z,3.60
2023-03-06T22:21:33.761Z,3.60
2023-03-06T22:24:02.605Z,3.65
2023-03-06T22:26:31.641Z,3.35
2023-03-06T22:29:00.413Z,3.25
2023-03-06T22:31:29.955Z,3.28
2023-03-06T22:34:01.185Z,3.45
2023-03-06T22:36:33.281Z,3.75
2023-03-06T22:39:05.019Z,4.20
2023-03-06T22:41:33.757Z,3.70
2023-03-06T22:44:03.278Z,4.13
2023-03-06T22:46:34.738Z,3.63
2023-03-06T22:49:03.975Z,3.75
2023-03-06T22:51:32.976Z,3.70
2023-03-06T22:54:01.903Z,3.90
2023-03-06T22:56:30.866Z,3.42
2023-03-06T22:59:00.394Z,3.40
2023-03-06T23:01:31.834Z,3.45
2023-03-06T23:04:03.038Z,3.80
2023-03-06T23:06:34.668Z,3.60
2023-03-06T23:09:09.480Z,4.07
2023-03-06T23:11:57.079Z,4.00
2023-03-06T23:14:44.363Z,3.63
2023-03-06T23:17:31.821Z,3.65
2023-03-06T23:20:19.158Z,4.03
2023-03-06T23:23:06.541Z,4.40
2023-03-06T23:25:45.033Z,3.92
2023-03-06T23:28:13.859Z,3.70
2023-03-06T23:30:43.381Z,3.10
2023-03-06T23:33:12.202Z,4.03
2023-03-06T23:35:41.091Z,3.83
2023-03-06T23:38:09.941Z,4.28
2023-03-06T23:40:40.145Z,3.90
2023-03-06T23:43:09.209Z,4.00
2023-03-06T23:45:40.823Z,4.18
2023-03-06T23:48:09.602Z,4.30
2023-03-06T23:50:41.048Z,4.28
2023-03-06T23:53:09.589Z,3.80
2023-03-06T23:55:49.064Z,4.13
2023-03-06T23:58:19.494Z,4.20
